This is the latest recevied weather packets stored in our database for station/object DO1SN-13. If no packets are shown the sender has not sent any weather packets the latest 10 day(s).
| Time | Temp. | Humidity | Pressure | Rain* | Wind** | Luminosity | Snow |
|---|---|---|---|---|---|---|---|
| 1787609195 | 18.89° C | - | 1016.8 hPa | 0 mm | - | - | - |
| 1787608831 | 20° C | - | 1016.6 hPa | 0 mm | - | - | - |
| 1787608467 | 20° C | - | 1016.7 hPa | 0 mm | - | - | - |
| 1787608103 | 20° C | - | 1016.6 hPa | 0 mm | - | - | - |
| 1787607754 | 18.89° C | - | 1016.6 hPa | 0 mm | - | - | - |
| 1787607374 | 19.44° C | - | 1016.6 hPa | 0 mm | - | - | - |
| 1787607009 | 19.44° C | - | 1016.6 hPa | 0 mm | - | - | - |
| 1787606645 | 20° C | - | 1016.8 hPa | 0 mm | - | - | - |
| 1787606281 | 20° C | - | 1016.9 hPa | 0 mm | - | - | - |
| 1787605917 | 19.44° C | - | 1016.9 hPa | 0 mm | - | - | - |
| 1787605553 | 18.89° C | - | 1017.1 hPa | 0 mm | - | - | - |
| 1787605188 | 19.44° C | - | 1017.1 hPa | 0 mm | - | - | - |
| 1787604823 | 20° C | - | 1017.1 hPa | 0 mm | - | - | - |
| 1787604459 | 20° C | - | 1017.3 hPa | 0 mm | - | - | - |
| 1787604095 | 19.44° C | - | 1017.4 hPa | 0 mm | - | - | - |
| 1787603730 | 18.89° C | - | 1017.3 hPa | 0 mm | - | - | - |
| 1787603366 | 18.33° C | - | 1017.4 hPa | 0 mm | - | - | - |
| 1787603002 | 18.33° C | - | 1017.5 hPa | 0 mm | - | - | - |
| 1787602638 | 21.11° C | - | 1017.9 hPa | 0 mm | - | - | - |
| 1787602274 | 21.11° C | - | 1018.1 hPa | 0 mm | - | - | - |
| 1787601909 | 20° C | - | 1016.7 hPa | 0 mm | - | - | - |
| 1787601545 | 21.11° C | - | 1018.3 hPa | 0 mm | - | - | - |
| 1787601181 | 22.78° C | - | 1018.8 hPa | 0 mm | - | - | - |
| 1787600816 | 22.78° C | - | 1018.6 hPa | 0 mm | - | - | - |
| 1787600452 | 21.67° C | - | 1018.2 hPa | 0 mm | - | - | - |
* Rain latest hour (hover to see other rain measurements)
** Current wind speed in m/s (hover to see current wind gust speed)